createdAt,value
2023-05-06T00:01:46.024Z,101430.88
2023-05-06T00:04:12.529Z,101442.13
2023-05-06T00:06:38.996Z,101437.81
2023-05-06T00:09:05.491Z,101432.66
2023-05-06T00:11:32.018Z,101436.97
2023-05-06T00:13:58.516Z,101440.44
2023-05-06T00:16:25.039Z,101446.50
2023-05-06T00:18:51.562Z,101444.75
2023-05-06T00:21:18.028Z,101447.34
2023-05-06T00:23:44.527Z,101447.38
2023-05-06T00:26:11.028Z,101451.69
2023-05-06T00:28:37.493Z,101447.38
2023-05-06T00:31:04.019Z,101448.25
2023-05-06T00:33:30.689Z,101456.03
2023-05-06T00:35:57.170Z,101449.97
2023-05-06T00:38:23.836Z,101439.59
2023-05-06T00:40:50.319Z,101435.31
2023-05-06T00:43:16.822Z,101436.22
2023-05-06T00:45:44.182Z,101437.06
2023-05-06T00:48:10.918Z,101431.88
2023-05-06T00:50:39.548Z,101432.75
2023-05-06T00:53:08.890Z,101424.06
2023-05-06T00:55:35.724Z,101433.63
2023-05-06T00:58:02.716Z,101431.88
2023-05-06T01:00:29.207Z,101427.53
2023-05-06T01:02:56.684Z,101427.53
2023-05-06T01:05:29.233Z,101422.31
2023-05-06T01:08:08.080Z,101421.44
2023-05-06T01:10:45.933Z,101415.34
2023-05-06T01:13:34.338Z,101424.00
2023-05-06T01:16:02.161Z,101425.69
2023-05-06T01:18:31.793Z,101417.81
2023-05-06T01:20:59.938Z,101431.69
2023-05-06T01:23:26.848Z,101430.75
2023-05-06T01:25:53.347Z,101429.88
2023-05-06T01:28:19.800Z,101423.81
2023-05-06T01:30:52.413Z,101429.00
2023-05-06T01:33:26.326Z,101418.63
2023-05-06T01:36:08.416Z,101422.97
2023-05-06T01:38:41.104Z,101409.06
2023-05-06T01:41:09.152Z,101411.69
2023-05-06T01:43:41.378Z,101419.47
2023-05-06T01:46:12.567Z,101412.56
2023-05-06T01:48:40.673Z,101419.44
2023-05-06T01:51:07.366Z,101421.13
2023-05-06T01:53:33.907Z,101421.16
2023-05-06T01:56:00.634Z,101413.31
2023-05-06T01:58:27.191Z,101415.06
2023-05-06T02:00:53.675Z,101417.59
2023-05-06T02:03:20.330Z,101416.72
2023-05-06T02:05:47.343Z,101431.38
2023-05-06T02:08:13.929Z,101427.06
2023-05-06T02:10:41.143Z,101421.00
2023-05-06T02:13:10.405Z,101417.53
2023-05-06T02:15:37.131Z,101420.13
2023-05-06T02:18:05.320Z,101421.03
2023-05-06T02:20:31.830Z,101426.22
2023-05-06T02:22:58.537Z,101418.44
2023-05-06T02:25:25.026Z,101430.53
2023-05-06T02:27:51.517Z,101425.38
2023-05-06T02:30:18.089Z,101427.06
2023-05-06T02:32:44.605Z,101422.75
2023-05-06T02:35:11.299Z,101424.47
2023-05-06T02:37:37.987Z,101416.72
2023-05-06T02:40:04.779Z,101415.00
2023-05-06T02:42:33.599Z,101418.44
2023-05-06T02:45:00.145Z,101421.00
2023-05-06T02:47:26.650Z,101414.09
2023-05-06T02:49:53.216Z,101410.63
2023-05-06T02:52:19.669Z,101416.66
2023-05-06T02:54:46.161Z,101419.25
2023-05-06T02:57:12.667Z,101427.00
2023-05-06T02:59:39.092Z,101422.72
2023-05-06T03:02:05.574Z,101423.56
2023-05-06T03:04:32.179Z,101417.47
2023-05-06T03:06:58.746Z,101420.94
2023-05-06T03:09:25.261Z,101420.06
2023-05-06T03:11:51.866Z,101421.75
2023-05-06T03:14:19.461Z,101422.66
2023-05-06T03:16:45.941Z,101421.78
2023-05-06T03:19:12.455Z,101423.50
2023-05-06T03:21:39.546Z,101424.38
2023-05-06T03:24:06.539Z,101409.66
2023-05-06T03:26:34.460Z,101411.44
2023-05-06T03:29:01.219Z,101422.66
2023-05-06T03:31:27.785Z,101414.03
2023-05-06T03:33:55.674Z,101419.22
2023-05-06T03:36:22.607Z,101420.09
2023-05-06T03:38:51.456Z,101418.38
2023-05-06T03:41:18.093Z,101418.38
2023-05-06T03:43:45.372Z,101416.63
2023-05-06T03:46:12.988Z,101426.09
2023-05-06T03:48:39.503Z,101410.53
2023-05-06T03:51:10.168Z,101416.56
2023-05-06T03:53:36.694Z,101415.69
2023-05-06T03:56:04.130Z,101413.03
2023-05-06T03:58:31.688Z,101421.63
2023-05-06T04:00:58.924Z,101418.13
2023-05-06T04:03:25.530Z,101423.28
2023-05-06T04:05:52.104Z,101425.00
2023-05-06T04:08:22.927Z,101418.06
2023-05-06T04:10:49.468Z,101424.06
2023-05-06T04:13:24.810Z,101425.78
2023-05-06T04:15:51.944Z,101419.72
2023-05-06T04:18:22.137Z,101419.66
2023-05-06T04:21:01.338Z,101422.25
2023-05-06T04:23:30.320Z,101423.97
2023-05-06T04:25:58.231Z,101426.59
2023-05-06T04:28:25.776Z,101424.84
2023-05-06T04:30:54.368Z,101416.16
2023-05-06T04:33:24.433Z,101421.41
2023-05-06T04:35:53.524Z,101421.41
2023-05-06T04:38:21.025Z,101431.78
2023-05-06T04:40:48.582Z,101424.03
2023-05-06T04:43:15.781Z,101423.16
2023-05-06T04:45:44.149Z,101427.50
2023-05-06T04:48:10.775Z,101418.88
2023-05-06T04:50:37.396Z,101421.47
2023-05-06T04:53:03.906Z,101424.06
2023-05-06T04:55:30.492Z,101423.28
2023-05-06T04:57:57.044Z,101425.88
2023-05-06T05:00:23.481Z,101432.81
2023-05-06T05:02:51.410Z,101425.91
2023-05-06T05:05:18.263Z,101433.66
2023-05-06T05:07:48.390Z,101439.72
2023-05-06T05:10:15.089Z,101434.56
2023-05-06T05:12:41.684Z,101446.59
2023-05-06T05:15:08.977Z,101440.56
2023-05-06T05:17:35.743Z,101442.31
2023-05-06T05:20:02.543Z,101444.03
2023-05-06T05:22:30.383Z,101440.59
2023-05-06T05:24:56.942Z,101444.06
2023-05-06T05:27:23.580Z,101445.81
2023-05-06T05:29:50.894Z,101442.41
2023-05-06T05:32:17.526Z,101442.44
2023-05-06T05:34:44.044Z,101449.38
2023-05-06T05:37:10.635Z,101447.72
2023-05-06T05:39:37.186Z,101452.06
2023-05-06T05:42:03.920Z,101456.47
2023-05-06T05:44:31.577Z,101451.34
2023-05-06T05:46:58.178Z,101451.41
2023-05-06T05:49:24.757Z,101458.38
2023-05-06T05:51:53.244Z,101448.09
2023-05-06T05:54:21.388Z,101455.94
2023-05-06T05:56:48.102Z,101446.47
2023-05-06T05:59:15.373Z,101447.38
2023-05-06T06:01:43.375Z,101450.03
2023-05-06T06:04:10.376Z,101453.56
2023-05-06T06:06:37.082Z,101458.78
2023-05-06T06:09:03.888Z,101445.03
2023-05-06T06:11:30.511Z,101457.19
2023-05-06T06:13:58.156Z,101449.47
2023-05-06T06:16:25.732Z,101456.44
2023-05-06T06:18:53.473Z,101459.94
2023-05-06T06:21:19.962Z,101467.78
2023-05-06T06:23:47.019Z,101460.91
2023-05-06T06:26:13.537Z,101466.16
2023-05-06T06:28:40.151Z,101460.13
2023-05-06T06:31:06.599Z,101460.16
2023-05-06T06:33:33.105Z,101462.78
2023-05-06T06:35:59.581Z,101468.88
2023-05-06T06:38:26.038Z,101468.97
2023-05-06T06:40:52.492Z,101468.09
2023-05-06T06:43:18.990Z,101469.84
2023-05-06T06:45:48.518Z,101482.00
2023-05-06T06:48:15.352Z,101476.84
2023-05-06T06:50:42.074Z,101474.25
2023-05-06T06:53:09.700Z,101471.66
2023-05-06T06:55:36.205Z,101472.53
2023-05-06T06:58:03.114Z,101476.84
2023-05-06T07:00:29.625Z,101475.09
2023-05-06T07:02:56.215Z,101475.09
2023-05-06T07:05:22.836Z,101474.22
2023-05-06T07:07:49.360Z,101469.00
2023-05-06T07:10:15.932Z,101476.78
2023-05-06T07:12:42.465Z,101473.31
2023-05-06T07:15:09.563Z,101474.19
2023-05-06T07:17:36.268Z,101473.25
2023-05-06T07:20:02.952Z,101486.25
2023-05-06T07:22:29.436Z,101478.38
2023-05-06T07:24:55.985Z,101475.72
2023-05-06T07:27:22.489Z,101477.41
2023-05-06T07:29:48.968Z,101479.97
2023-05-06T07:32:15.406Z,101472.94
2023-05-06T07:34:41.916Z,101477.19
2023-05-06T07:37:08.370Z,101467.63
2023-05-06T07:39:34.955Z,101474.44
2023-05-06T07:42:02.914Z,101470.91
2023-05-06T07:44:30.291Z,101476.03
2023-05-06T07:46:57.084Z,101470.66
2023-05-06T07:49:23.843Z,101477.50
2023-05-06T07:51:50.590Z,101480.88
2023-05-06T07:54:17.344Z,101479.88
2023-05-06T07:56:44.075Z,101473.66
2023-05-06T07:59:10.783Z,101470.13
2023-05-06T08:01:37.420Z,101476.03
2023-05-06T08:04:04.294Z,101475.13
2023-05-06T08:06:31.028Z,101476.69
2023-05-06T08:08:57.690Z,101488.78
2023-05-06T08:11:24.481Z,101488.72
2023-05-06T08:13:51.197Z,101480.88
2023-05-06T08:16:17.937Z,101480.03
2023-05-06T08:18:44.718Z,101455.78
2023-05-06T08:21:11.171Z,101481.69
2023-05-06T08:23:37.614Z,101486.91
2023-05-06T08:26:04.154Z,101488.56
2023-05-06T08:28:30.680Z,101489.34
2023-05-06T08:30:57.371Z,101490.09
2023-05-06T08:33:23.851Z,101493.56
2023-05-06T08:35:51.429Z,101496.97
2023-05-06T08:38:17.887Z,101480.38
2023-05-06T08:40:45.067Z,101482.16
2023-05-06T08:43:14.820Z,101486.41
2023-05-06T08:45:41.968Z,101481.97
2023-05-06T08:48:09.212Z,101477.59
2023-05-06T08:50:40.606Z,101473.25
2023-05-06T08:53:07.171Z,101475.88
2023-05-06T08:55:34.795Z,101471.50
2023-05-06T08:58:01.494Z,101472.47
2023-05-06T09:00:28.006Z,101475.94
2023-05-06T09:02:54.700Z,101483.81
2023-05-06T09:05:21.227Z,101472.53
2023-05-06T09:07:47.700Z,101476.00
2023-05-06T09:10:14.641Z,101474.22
2023-05-06T09:12:41.204Z,101487.25
2023-05-06T09:15:09.557Z,101478.59
2023-05-06T09:17:36.235Z,101476.94
2023-05-06T09:20:03.064Z,101476.09
2023-05-06T09:22:30.676Z,101480.47
2023-05-06T09:24:58.308Z,101476.13
2023-05-06T09:27:28.191Z,101480.56
2023-05-06T09:30:05.716Z,101466.78
2023-05-06T09:32:32.902Z,101471.16
2023-05-06T09:34:59.552Z,101471.16
2023-05-06T09:37:26.315Z,101474.63
2023-05-06T09:39:57.572Z,101468.59
2023-05-06T09:42:25.604Z,101470.22
2023-05-06T09:44:54.836Z,101474.44
2023-05-06T09:47:22.391Z,101477.84
2023-05-06T09:49:48.884Z,101467.28
2023-05-06T09:52:15.699Z,101474.19
2023-05-06T09:54:42.789Z,101465.47
2023-05-06T09:57:10.154Z,101462.75
2023-05-06T09:59:37.105Z,101461.00
2023-05-06T10:02:04.850Z,101459.19
2023-05-06T10:04:35.192Z,101465.22
2023-05-06T10:07:03.126Z,101464.25
2023-05-06T10:09:30.030Z,101463.38
2023-05-06T10:11:59.032Z,101459.06
2023-05-06T10:14:25.504Z,101459.84
2023-05-06T10:16:53.286Z,101450.13
2023-05-06T10:19:23.796Z,101456.00
2023-05-06T10:21:57.241Z,101448.97
2023-05-06T10:24:32.395Z,101448.84
2023-05-06T10:27:01.942Z,101451.41
2023-05-06T10:29:29.124Z,101448.81
2023-05-06T10:31:57.171Z,101442.81
2023-05-06T10:34:25.546Z,101447.09
2023-05-06T10:36:55.894Z,101450.69
2023-05-06T10:39:22.988Z,101444.66
2023-05-06T10:41:49.522Z,101438.63
2023-05-06T10:44:16.260Z,101435.31
2023-05-06T10:47:00.115Z,101436.34
2023-05-06T10:49:26.891Z,101434.78
2023-05-06T10:52:14.319Z,101423.63
2023-05-06T10:54:51.282Z,101431.41
2023-05-06T10:57:18.070Z,101434.78
2023-05-06T10:59:46.227Z,101433.81
2023-05-06T11:02:13.233Z,101432.84
2023-05-06T11:04:40.127Z,101426.66
2023-05-06T11:07:22.287Z,101416.16
2023-05-06T11:09:55.960Z,101430.00
2023-05-06T11:12:42.764Z,101422.03
2023-05-06T11:15:25.874Z,101417.69
2023-05-06T11:17:54.294Z,101423.78
2023-05-06T11:20:23.351Z,101422.03
2023-05-06T11:22:50.172Z,101418.56
2023-05-06T11:25:38.898Z,101419.34
2023-05-06T11:28:12.256Z,101420.22
2023-05-06T11:30:43.531Z,101403.84
2023-05-06T11:33:18.961Z,101405.59
2023-05-06T11:35:45.716Z,101405.72
2023-05-06T11:38:12.501Z,101396.16
2023-05-06T11:40:41.483Z,101395.31
2023-05-06T11:43:12.245Z,101390.09
2023-05-06T11:45:47.178Z,101399.00
2023-05-06T11:48:18.081Z,101401.81
2023-05-06T11:50:49.093Z,101403.75
2023-05-06T11:53:20.248Z,101411.84
2023-05-06T11:55:48.196Z,101425.91
2023-05-06T11:58:15.840Z,101419.88
2023-05-06T12:00:51.355Z,101410.28
2023-05-06T12:03:21.392Z,101412.75
2023-05-06T12:05:49.279Z,101411.88
2023-05-06T12:08:26.569Z,101414.56
2023-05-06T12:10:56.814Z,101407.59
2023-05-06T12:13:23.546Z,101410.22
2023-05-06T12:15:50.692Z,101412.03
2023-05-06T12:18:17.501Z,101415.44
2023-05-06T12:20:44.327Z,101418.06
2023-05-06T12:23:11.787Z,101412.81
2023-05-06T12:25:39.749Z,101421.53
2023-05-06T12:28:20.155Z,101414.56
2023-05-06T12:30:46.810Z,101429.38
2023-05-06T12:33:13.528Z,101425.03
2023-05-06T12:35:40.946Z,101424.22
2023-05-06T12:38:15.522Z,101421.63
2023-05-06T12:40:43.826Z,101425.13
2023-05-06T12:43:11.500Z,101432.13
2023-05-06T12:45:38.679Z,101433.03
2023-05-06T12:48:05.629Z,101429.53
2023-05-06T12:50:33.254Z,101420.75
2023-05-06T12:53:00.147Z,101422.47
2023-05-06T12:55:27.023Z,101419.81
2023-05-06T12:57:53.489Z,101427.63
2023-05-06T13:00:20.603Z,101429.28
2023-05-06T13:02:47.596Z,101420.50
2023-05-06T13:05:14.226Z,101425.72
2023-05-06T13:07:41.179Z,101425.66
2023-05-06T13:10:08.288Z,101416.91
2023-05-06T13:12:35.247Z,101422.00
2023-05-06T13:15:02.192Z,101421.91
2023-05-06T13:17:28.733Z,101422.69
2023-05-06T13:19:58.423Z,101420.78
2023-05-06T13:22:24.912Z,101425.97
2023-05-06T13:24:51.381Z,101425.94
2023-05-06T13:27:17.935Z,101421.50
2023-05-06T13:29:44.435Z,101424.09
2023-05-06T13:32:11.068Z,101417.22
2023-05-06T13:34:37.564Z,101420.72
2023-05-06T13:37:04.037Z,101417.22
2023-05-06T13:39:30.546Z,101419.88
2023-05-06T13:41:57.006Z,101416.47
2023-05-06T13:44:23.469Z,101412.25
2023-05-06T13:46:50.108Z,101409.84
2023-05-06T13:49:17.946Z,101406.47
2023-05-06T13:51:44.395Z,101406.56
2023-05-06T13:54:10.943Z,101412.81
2023-05-06T13:56:37.518Z,101405.00
2023-05-06T13:59:04.091Z,101403.38
2023-05-06T14:01:30.864Z,101411.31
2023-05-06T14:03:57.391Z,101408.78
2023-05-06T14:06:23.839Z,101405.34
2023-05-06T14:08:50.379Z,101405.44
2023-05-06T14:11:16.851Z,101404.63
2023-05-06T14:13:43.349Z,101404.72
2023-05-06T14:16:10.182Z,101402.19
2023-05-06T14:18:36.656Z,101401.31
2023-05-06T14:21:03.191Z,101402.19
2023-05-06T14:23:29.717Z,101405.75
2023-05-06T14:25:56.207Z,101397.97
2023-05-06T14:28:22.728Z,101396.25
2023-05-06T14:30:50.585Z,101397.13
2023-05-06T14:33:17.128Z,101398.03
2023-05-06T14:35:43.606Z,101392.81
2023-05-06T14:38:10.615Z,101391.09
2023-05-06T14:40:37.155Z,101393.78
2023-05-06T14:43:03.643Z,101386.88
2023-05-06T14:45:30.257Z,101386.94
2023-05-06T14:47:57.068Z,101383.50
2023-05-06T14:50:23.618Z,101376.56
2023-05-06T14:52:50.140Z,101380.91
2023-05-06T14:55:17.188Z,101378.31
2023-05-06T14:57:43.653Z,101382.66
2023-05-06T15:00:10.526Z,101374.88
2023-05-06T15:02:44.862Z,101380.13
2023-05-06T15:05:11.604Z,101369.72
2023-05-06T15:07:38.342Z,101371.47
2023-05-06T15:10:05.298Z,101368.91
2023-05-06T15:12:31.879Z,101368.06
2023-05-06T15:14:58.431Z,101366.31
2023-05-06T15:17:24.941Z,101369.84
2023-05-06T15:19:51.523Z,101363.78
2023-05-06T15:22:18.041Z,101370.72
2023-05-06T15:24:44.510Z,101362.94
2023-05-06T15:27:10.989Z,101362.09
2023-05-06T15:29:38.572Z,101364.75
2023-05-06T15:32:05.503Z,101360.47
2023-05-06T15:34:31.992Z,101356.97
2023-05-06T15:36:58.491Z,101352.66
2023-05-06T15:39:24.947Z,101340.50
2023-05-06T15:41:51.403Z,101338.81
2023-05-06T15:44:20.659Z,101326.66
2023-05-06T15:46:47.851Z,101314.53
2023-05-06T15:49:45.646Z,101322.41
2023-05-06T15:52:01.227Z,101338.03
2023-05-06T15:54:28.275Z,101339.78
2023-05-06T15:56:54.766Z,101343.25
2023-05-06T15:59:21.249Z,101350.16
2023-05-06T16:02:18.946Z,101353.59
2023-05-06T16:04:34.449Z,101356.19
2023-05-06T16:07:01.957Z,101354.44
2023-05-06T16:09:28.442Z,101353.53
2023-05-06T16:11:54.989Z,101355.28
2023-05-06T16:14:21.532Z,101357.00
2023-05-06T16:16:47.977Z,101355.28
2023-05-06T16:19:14.453Z,101360.47
2023-05-06T16:21:40.909Z,101363.09
2023-05-06T16:24:07.669Z,101358.72
2023-05-06T16:26:34.129Z,101356.97
2023-05-06T16:29:00.591Z,101358.72
2023-05-06T16:31:27.087Z,101358.72
2023-05-06T16:33:53.606Z,101354.38
2023-05-06T16:36:20.039Z,101359.59
2023-05-06T16:38:46.646Z,101357.84
2023-05-06T16:41:13.086Z,101357.84
2023-05-06T16:43:39.560Z,101354.38
2023-05-06T16:46:06.209Z,101350.88
2023-05-06T16:48:32.808Z,101348.28
2023-05-06T16:50:59.319Z,101359.59
2023-05-06T16:53:25.776Z,101356.97
2023-05-06T16:55:52.258Z,101357.00
2023-05-06T16:58:18.821Z,101354.44
2023-05-06T17:00:45.316Z,101361.34
2023-05-06T17:03:12.005Z,101368.38
2023-05-06T17:05:38.805Z,101366.63
2023-05-06T17:08:05.426Z,101367.56
2023-05-06T17:10:31.967Z,101364.06
2023-05-06T17:12:58.790Z,101347.59
2023-05-06T17:15:25.411Z,101342.38
2023-05-06T17:17:52.041Z,101332.84
2023-05-06T17:20:18.835Z,101332.88
2023-05-06T17:22:45.701Z,101337.22
2023-05-06T17:25:12.182Z,101338.97
2023-05-06T17:31:27.298Z,101333.84
2023-05-06T17:33:54.216Z,101331.28
2023-05-06T17:36:21.065Z,101337.38
2023-05-06T17:38:48.372Z,101338.25
2023-05-06T17:41:15.683Z,101328.75
2023-05-06T17:43:42.266Z,101318.38
2023-05-06T17:46:09.154Z,101322.72
2023-05-06T17:48:35.725Z,101319.28
2023-05-06T17:51:02.825Z,101323.63
2023-05-06T17:53:36.991Z,101321.88
2023-05-06T17:56:04.050Z,101302.88
2023-05-06T17:58:30.865Z,101315.84
2023-05-06T18:00:57.411Z,101312.38
2023-05-06T18:03:24.314Z,101319.31
2023-05-06T18:05:51.161Z,101319.31
2023-05-06T18:08:18.200Z,101324.53
2023-05-06T18:10:44.907Z,101314.16
2023-05-06T18:13:11.497Z,101311.56
2023-05-06T18:15:38.088Z,101318.50
2023-05-06T18:18:04.929Z,101309.84
2023-05-06T18:20:32.259Z,101306.38
2023-05-06T18:22:58.765Z,101309.84
2023-05-06T18:25:25.306Z,101302.03
2023-05-06T18:27:51.866Z,101311.59
2023-05-06T18:30:18.461Z,101301.19
2023-05-06T18:32:45.200Z,101305.50
2023-05-06T18:35:12.101Z,101305.53
2023-05-06T18:37:39.009Z,101313.34
2023-05-06T18:40:06.344Z,101298.63
2023-05-06T18:42:34.014Z,101302.97
2023-05-06T18:45:03.514Z,101307.34
2023-05-06T18:47:30.019Z,101309.06
2023-05-06T18:49:56.514Z,101296.97
2023-05-06T18:52:23.227Z,101305.63
2023-05-06T18:54:49.786Z,101306.47
2023-05-06T18:57:16.305Z,101303.91
2023-05-06T18:59:42.857Z,101320.34
2023-05-06T19:02:09.402Z,101318.63
2023-05-06T19:04:36.432Z,101317.75
2023-05-06T19:07:03.044Z,101313.41
2023-05-06T19:09:29.809Z,101309.13
2023-05-06T19:11:56.373Z,101308.25
2023-05-06T19:14:23.651Z,101309.97
2023-05-06T19:16:52.219Z,101295.22
2023-05-06T19:19:18.929Z,101315.16
2023-05-06T19:21:47.970Z,101310.84
2023-05-06T19:24:14.508Z,101308.22
2023-05-06T19:26:41.035Z,101310.84
2023-05-06T19:29:07.583Z,101309.97
2023-05-06T19:31:34.395Z,101303.91
2023-05-06T19:34:01.044Z,101309.06
2023-05-06T19:36:27.587Z,101306.50
2023-05-06T19:38:54.054Z,101309.94
2023-05-06T19:41:20.556Z,101319.50
2023-05-06T19:43:47.047Z,101312.56
2023-05-06T19:46:14.014Z,101323.78
2023-05-06T19:48:40.563Z,101311.72
2023-05-06T19:51:07.581Z,101320.38
2023-05-06T19:53:35.781Z,101327.28
2023-05-06T19:56:13.201Z,101319.50
2023-05-06T19:58:39.804Z,101317.75
2023-05-06T20:01:06.476Z,101328.13
2023-05-06T20:03:33.311Z,101329.00
2023-05-06T20:05:59.955Z,101332.44
2023-05-06T20:08:26.801Z,101326.41
2023-05-06T20:10:53.667Z,101326.41
2023-05-06T20:13:20.274Z,101335.91
2023-05-06T20:15:46.955Z,101337.69
2023-05-06T20:18:13.561Z,101326.41
2023-05-06T20:20:40.176Z,101336.78
2023-05-06T20:23:06.948Z,101332.44
2023-05-06T20:25:33.601Z,101337.66
2023-05-06T20:28:00.106Z,101330.69
2023-05-06T20:30:26.808Z,101335.03
2023-05-06T20:32:53.573Z,101336.78
2023-05-06T20:35:20.222Z,101332.44
2023-05-06T20:37:46.696Z,101329.84
2023-05-06T20:40:13.669Z,101340.22
2023-05-06T20:42:40.224Z,101334.19
2023-05-06T20:45:07.465Z,101332.44
2023-05-06T20:47:34.386Z,101339.34
2023-05-06T20:50:01.425Z,101347.16
2023-05-06T20:52:28.034Z,101347.16
2023-05-06T20:54:54.518Z,101348.91
2023-05-06T20:57:22.209Z,101347.13
2023-05-06T20:59:48.742Z,101351.47
2023-05-06T21:02:15.423Z,101347.16
2023-05-06T21:04:42.243Z,101354.06
2023-05-06T21:07:08.807Z,101357.56
2023-05-06T21:09:35.674Z,101352.38
2023-05-06T21:12:02.535Z,101355.84
2023-05-06T21:14:29.072Z,101355.81
2023-05-06T21:16:55.874Z,101358.41
2023-05-06T21:19:22.424Z,101342.81
2023-05-06T21:21:48.908Z,101355.81
2023-05-06T21:24:15.485Z,101358.41
2023-05-06T21:26:42.044Z,101336.78
2023-05-06T21:29:08.593Z,101347.16
2023-05-06T21:31:35.259Z,101348.00
2023-05-06T21:34:01.957Z,101349.72
2023-05-06T21:36:28.459Z,101346.25
2023-05-06T21:39:06.343Z,101348.88
2023-05-06T21:41:32.902Z,101353.22
2023-05-06T21:43:59.416Z,101356.69
2023-05-06T21:46:25.993Z,101364.50
2023-05-06T21:48:52.748Z,101348.91
2023-05-06T21:51:19.572Z,101344.56
2023-05-06T21:53:50.288Z,101358.41
2023-05-06T21:56:17.814Z,101361.88
2023-05-06T21:58:44.589Z,101367.09
2023-05-06T22:01:11.481Z,101347.16
2023-05-06T22:03:38.120Z,101342.00
2023-05-06T22:06:05.073Z,101347.13
2023-05-06T22:08:31.654Z,101344.56
2023-05-06T22:10:58.360Z,101366.22
2023-05-06T22:13:25.675Z,101367.97
2023-05-06T22:15:53.041Z,101354.13
2023-05-06T22:18:19.725Z,101357.59
2023-05-06T22:20:46.623Z,101372.31
2023-05-06T22:23:13.355Z,101372.31
2023-05-06T22:25:39.837Z,101353.28
2023-05-06T22:28:06.426Z,101361.06
2023-05-06T22:30:34.183Z,101364.53
2023-05-06T22:33:00.699Z,101367.97
2023-05-06T22:35:27.421Z,101371.44
2023-05-06T22:37:54.562Z,101367.97
2023-05-06T22:40:21.214Z,101361.06
2023-05-06T22:42:47.950Z,101365.41
2023-05-06T22:45:14.510Z,101378.41
2023-05-06T22:47:41.259Z,101376.66
2023-05-06T22:50:08.116Z,101377.53
2023-05-06T22:52:34.717Z,101375.81
2023-05-06T22:55:01.512Z,101372.34
2023-05-06T22:57:28.042Z,101372.34
2023-05-06T22:59:54.569Z,101373.22
2023-05-06T23:02:21.293Z,101378.44
2023-05-06T23:04:47.855Z,101387.94
2023-05-06T23:07:15.117Z,101387.94
2023-05-06T23:09:41.600Z,101393.16
2023-05-06T23:12:08.104Z,101382.78
2023-05-06T23:14:34.627Z,101389.69
2023-05-06T23:17:01.216Z,101392.28
2023-05-06T23:19:27.772Z,101392.28
2023-05-06T23:21:54.287Z,101382.78
2023-05-06T23:24:20.759Z,101381.91
2023-05-06T23:26:47.249Z,101365.44
2023-05-06T23:29:14.057Z,101379.31
2023-05-06T23:31:40.638Z,101381.06
2023-05-06T23:34:07.145Z,101381.91
2023-05-06T23:36:34.063Z,101379.31
2023-05-06T23:39:01.049Z,101375.00
2023-05-06T23:41:27.872Z,101392.34
2023-05-06T23:43:54.431Z,101394.94
2023-05-06T23:46:21.117Z,101380.22
2023-05-06T23:48:47.687Z,101387.13
2023-05-06T23:51:14.212Z,101390.59
2023-05-06T23:53:40.961Z,101376.72
2023-05-06T23:56:07.656Z,101370.66
2023-05-06T23:58:34.184Z,101382.78
